sensor_id;sensor_type;location;lat;lon;timestamp;pressure;altitude;pressure_sealevel;temperature;humidity
77003;BME280;65939;50.060;14.288;2023-09-07T00:01:28;97945.28;;;17.84;76.98
77003;BME280;65939;50.060;14.288;2023-09-07T00:03:29;97945.47;;;17.82;77.00
77003;BME280;65939;50.060;14.288;2023-09-07T00:05:30;97949.28;;;17.80;77.35
77003;BME280;65939;50.060;14.288;2023-09-07T00:07:31;97945.19;;;17.77;77.23
77003;BME280;65939;50.060;14.288;2023-09-07T00:09:32;97946.34;;;17.75;77.00
77003;BME280;65939;50.060;14.288;2023-09-07T00:11:32;97944.50;;;17.75;77.29
77003;BME280;65939;50.060;14.288;2023-09-07T00:13:33;97944.72;;;17.74;77.43
77003;BME280;65939;50.060;14.288;2023-09-07T00:15:38;97940.25;;;17.74;77.63
77003;BME280;65939;50.060;14.288;2023-09-07T00:17:39;97934.97;;;17.74;78.00
77003;BME280;65939;50.060;14.288;2023-09-07T00:19:39;97935.78;;;17.75;77.99
77003;BME280;65939;50.060;14.288;2023-09-07T00:21:40;97946.34;;;17.75;77.49
77003;BME280;65939;50.060;14.288;2023-09-07T00:23:40;97942.75;;;17.76;78.31
77003;BME280;65939;50.060;14.288;2023-09-07T00:25:41;97940.09;;;17.76;77.89
77003;BME280;65939;50.060;14.288;2023-09-07T00:27:42;97934.97;;;17.74;78.18
77003;BME280;65939;50.060;14.288;2023-09-07T00:29:43;97942.28;;;17.72;78.07
77003;BME280;65939;50.060;14.288;2023-09-07T00:31:43;97939.78;;;17.70;78.02
77003;BME280;65939;50.060;14.288;2023-09-07T00:33:44;97940.81;;;17.69;78.84
77003;BME280;65939;50.060;14.288;2023-09-07T00:35:45;97949.75;;;17.68;78.50
77003;BME280;65939;50.060;14.288;2023-09-07T00:37:45;97942.19;;;17.65;78.37
77003;BME280;65939;50.060;14.288;2023-09-07T00:39:46;97945.81;;;17.64;78.03
77003;BME280;65939;50.060;14.288;2023-09-07T00:41:46;97947.00;;;17.62;78.35
77003;BME280;65939;50.060;14.288;2023-09-07T00:43:47;97939.25;;;17.60;78.72
77003;BME280;65939;50.060;14.288;2023-09-07T00:45:49;97945.56;;;17.59;79.50
77003;BME280;65939;50.060;14.288;2023-09-07T00:47:50;97947.53;;;17.57;79.37
77003;BME280;65939;50.060;14.288;2023-09-07T00:49:51;97944.91;;;17.57;79.86
77003;BME280;65939;50.060;14.288;2023-09-07T00:51:52;97945.28;;;17.54;78.94
77003;BME280;65939;50.060;14.288;2023-09-07T00:53:53;97943.84;;;17.52;79.46
77003;BME280;65939;50.060;14.288;2023-09-07T00:55:55;97940.38;;;17.51;79.27
77003;BME280;65939;50.060;14.288;2023-09-07T00:57:57;97940.75;;;17.48;79.77
77003;BME280;65939;50.060;14.288;2023-09-07T00:59:57;97937.44;;;17.46;79.02
77003;BME280;65939;50.060;14.288;2023-09-07T01:01:58;97935.19;;;17.43;79.91
77003;BME280;65939;50.060;14.288;2023-09-07T01:03:59;97939.84;;;17.41;79.89
77003;BME280;65939;50.060;14.288;2023-09-07T01:06:22;97945.47;;;17.38;79.90
77003;BME280;65939;50.060;14.288;2023-09-07T01:08:32;97938.72;;;17.35;79.70
77003;BME280;65939;50.060;14.288;2023-09-07T01:10:35;97944.38;;;17.32;80.14
77003;BME280;65939;50.060;14.288;2023-09-07T01:12:36;97942.13;;;17.29;80.13
77003;BME280;65939;50.060;14.288;2023-09-07T01:14:37;97944.94;;;17.28;80.54
77003;BME280;65939;50.060;14.288;2023-09-07T01:16:37;97938.19;;;17.25;80.70
77003;BME280;65939;50.060;14.288;2023-09-07T01:18:42;97941.84;;;17.24;81.37
77003;BME280;65939;50.060;14.288;2023-09-07T01:20:44;97944.00;;;17.20;80.75
77003;BME280;65939;50.060;14.288;2023-09-07T01:22:46;97947.66;;;17.19;81.85
77003;BME280;65939;50.060;14.288;2023-09-07T01:24:47;97945.19;;;17.18;81.41
77003;BME280;65939;50.060;14.288;2023-09-07T01:26:48;97943.56;;;17.17;81.13
77003;BME280;65939;50.060;14.288;2023-09-07T01:28:50;97939.28;;;17.16;81.51
77003;BME280;65939;50.060;14.288;2023-09-07T01:30:51;97935.84;;;17.15;82.08
77003;BME280;65939;50.060;14.288;2023-09-07T01:32:52;97937.00;;;17.13;81.97
77003;BME280;65939;50.060;14.288;2023-09-07T01:34:57;97938.84;;;17.12;82.37
77003;BME280;65939;50.060;14.288;2023-09-07T01:36:58;97940.81;;;17.10;82.18
77003;BME280;65939;50.060;14.288;2023-09-07T01:38:59;97943.66;;;17.09;81.49
77003;BME280;65939;50.060;14.288;2023-09-07T01:40:59;97936.91;;;17.06;82.47
77003;BME280;65939;50.060;14.288;2023-09-07T01:43:00;97939.91;;;17.03;82.01
77003;BME280;65939;50.060;14.288;2023-09-07T01:45:00;97938.47;;;17.01;81.84
77003;BME280;65939;50.060;14.288;2023-09-07T01:47:03;97939.63;;;16.98;82.87
77003;BME280;65939;50.060;14.288;2023-09-07T01:49:04;97942.63;;;16.95;82.17
77003;BME280;65939;50.060;14.288;2023-09-07T01:51:05;97935.06;;;16.92;81.82
77003;BME280;65939;50.060;14.288;2023-09-07T01:53:05;97936.63;;;16.86;82.42
77003;BME280;65939;50.060;14.288;2023-09-07T01:55:06;97938.97;;;16.81;81.65
77003;BME280;65939;50.060;14.288;2023-09-07T01:57:07;97936.06;;;16.76;81.73
77003;BME280;65939;50.060;14.288;2023-09-07T01:59:07;97941.00;;;16.71;81.36
77003;BME280;65939;50.060;14.288;2023-09-07T02:01:32;97941.91;;;16.63;81.73
77003;BME280;65939;50.060;14.288;2023-09-07T02:03:37;97942.78;;;16.56;81.67
77003;BME280;65939;50.060;14.288;2023-09-07T02:05:39;97940.03;;;16.49;82.47
77003;BME280;65939;50.060;14.288;2023-09-07T02:07:39;97930.19;;;16.43;82.47
77003;BME280;65939;50.060;14.288;2023-09-07T02:09:41;97943.91;;;16.38;82.77
77003;BME280;65939;50.060;14.288;2023-09-07T02:11:42;97941.81;;;16.34;82.07
77003;BME280;65939;50.060;14.288;2023-09-07T02:13:45;97933.59;;;16.28;82.42
77003;BME280;65939;50.060;14.288;2023-09-07T02:15:46;97941.84;;;16.25;82.58
77003;BME280;65939;50.060;14.288;2023-09-07T02:17:47;97937.94;;;16.21;83.63
77003;BME280;65939;50.060;14.288;2023-09-07T02:19:47;97941.91;;;16.17;82.96
77003;BME280;65939;50.060;14.288;2023-09-07T02:21:48;97944.88;;;16.14;84.08
77003;BME280;65939;50.060;14.288;2023-09-07T02:23:49;97952.16;;;16.12;84.36
77003;BME280;65939;50.060;14.288;2023-09-07T02:25:49;97950.69;;;16.10;84.39
77003;BME280;65939;50.060;14.288;2023-09-07T02:27:50;97953.84;;;16.05;84.90
77003;BME280;65939;50.060;14.288;2023-09-07T02:29:51;97953.38;;;16.01;84.76
77003;BME280;65939;50.060;14.288;2023-09-07T02:31:51;97947.66;;;15.98;85.21
77003;BME280;65939;50.060;14.288;2023-09-07T02:33:52;97942.72;;;15.95;85.80
77003;BME280;65939;50.060;14.288;2023-09-07T02:35:53;97945.69;;;15.92;85.31
77003;BME280;65939;50.060;14.288;2023-09-07T02:37:53;97952.31;;;15.88;85.21
77003;BME280;65939;50.060;14.288;2023-09-07T02:39:54;97952.66;;;15.85;86.61
77003;BME280;65939;50.060;14.288;2023-09-07T02:41:55;97953.81;;;15.82;86.14
77003;BME280;65939;50.060;14.288;2023-09-07T02:43:55;97953.16;;;15.80;86.50
77003;BME280;65939;50.060;14.288;2023-09-07T02:45:56;97953.50;;;15.77;87.44
77003;BME280;65939;50.060;14.288;2023-09-07T02:47:57;97952.69;;;15.76;86.90
77003;BME280;65939;50.060;14.288;2023-09-07T02:49:57;97948.59;;;15.74;87.20
77003;BME280;65939;50.060;14.288;2023-09-07T02:51:58;97949.75;;;15.71;87.33
77003;BME280;65939;50.060;14.288;2023-09-07T02:53:59;97955.19;;;15.70;88.10
77003;BME280;65939;50.060;14.288;2023-09-07T02:55:59;97949.13;;;15.69;87.89
77003;BME280;65939;50.060;14.288;2023-09-07T02:58:03;97956.34;;;15.67;88.73
77003;BME280;65939;50.060;14.288;2023-09-07T03:00:04;97954.72;;;15.66;87.81
77003;BME280;65939;50.060;14.288;2023-09-07T03:02:09;97954.19;;;15.63;87.61
77003;BME280;65939;50.060;14.288;2023-09-07T03:04:10;97956.19;;;15.61;87.17
77003;BME280;65939;50.060;14.288;2023-09-07T03:06:12;97957.31;;;15.58;87.51
77003;BME280;65939;50.060;14.288;2023-09-07T03:08:13;97961.28;;;15.54;87.21
77003;BME280;65939;50.060;14.288;2023-09-07T03:10:14;97959.84;;;15.51;88.43
77003;BME280;65939;50.060;14.288;2023-09-07T03:12:15;97954.91;;;15.48;88.70
77003;BME280;65939;50.060;14.288;2023-09-07T03:14:15;97958.69;;;15.46;88.82
77003;BME280;65939;50.060;14.288;2023-09-07T03:16:16;97959.84;;;15.43;89.15
77003;BME280;65939;50.060;14.288;2023-09-07T03:18:17;97962.66;;;15.42;89.18
77003;BME280;65939;50.060;14.288;2023-09-07T03:20:18;97967.25;;;15.40;88.92
77003;BME280;65939;50.060;14.288;2023-09-07T03:22:19;97966.63;;;15.38;88.97
77003;BME280;65939;50.060;14.288;2023-09-07T03:24:20;97963.53;;;15.34;89.09
77003;BME280;65939;50.060;14.288;2023-09-07T03:26:20;97962.03;;;15.31;88.86
77003;BME280;65939;50.060;14.288;2023-09-07T03:28:21;97962.22;;;15.30;89.91
77003;BME280;65939;50.060;14.288;2023-09-07T03:30:22;97961.56;;;15.28;89.64
77003;BME280;65939;50.060;14.288;2023-09-07T03:32:22;97959.09;;;15.26;90.36
77003;BME280;65939;50.060;14.288;2023-09-07T03:34:23;97962.06;;;15.23;90.30
77003;BME280;65939;50.060;14.288;2023-09-07T03:36:24;97962.22;;;15.22;91.00
77003;BME280;65939;50.060;14.288;2023-09-07T03:38:24;97965.03;;;15.20;90.71
77003;BME280;65939;50.060;14.288;2023-09-07T03:40:25;97964.38;;;15.18;90.46
77003;BME280;65939;50.060;14.288;2023-09-07T03:42:26;97966.34;;;15.16;91.17
77003;BME280;65939;50.060;14.288;2023-09-07T03:44:27;97966.50;;;15.15;91.12
77003;BME280;65939;50.060;14.288;2023-09-07T03:46:27;97966.03;;;15.11;90.23
77003;BME280;65939;50.060;14.288;2023-09-07T03:48:28;97972.47;;;15.08;89.98
77003;BME280;65939;50.060;14.288;2023-09-07T03:50:29;97963.09;;;15.06;90.83
77003;BME280;65939;50.060;14.288;2023-09-07T03:52:29;97969.50;;;15.03;90.81
77003;BME280;65939;50.060;14.288;2023-09-07T03:54:31;97967.03;;;15.02;90.73
77003;BME280;65939;50.060;14.288;2023-09-07T03:56:32;97962.94;;;14.99;90.58
77003;BME280;65939;50.060;14.288;2023-09-07T03:58:32;97969.34;;;14.97;90.56
77003;BME280;65939;50.060;14.288;2023-09-07T04:00:33;97967.03;;;14.94;90.95
77003;BME280;65939;50.060;14.288;2023-09-07T04:02:34;97963.91;;;14.90;90.97
77003;BME280;65939;50.060;14.288;2023-09-07T04:04:34;97968.53;;;14.88;90.83
77003;BME280;65939;50.060;14.288;2023-09-07T04:06:35;97967.22;;;14.84;90.56
77003;BME280;65939;50.060;14.288;2023-09-07T04:08:35;97956.06;;;14.82;91.18
77003;BME280;65939;50.060;14.288;2023-09-07T04:10:37;97957.19;;;14.79;92.19
77003;BME280;65939;50.060;14.288;2023-09-07T04:12:38;97962.81;;;14.76;91.53
77003;BME280;65939;50.060;14.288;2023-09-07T04:14:39;97955.25;;;14.73;91.00
77003;BME280;65939;50.060;14.288;2023-09-07T04:16:42;97972.84;;;14.73;91.71
77003;BME280;65939;50.060;14.288;2023-09-07T04:18:42;97968.72;;;14.70;92.23
77003;BME280;65939;50.060;14.288;2023-09-07T04:20:44;97970.53;;;14.70;93.04
77003;BME280;65939;50.060;14.288;2023-09-07T04:22:45;97976.59;;;14.70;93.49
77003;BME280;65939;50.060;14.288;2023-09-07T04:24:48;97975.78;;;14.70;92.63
77003;BME280;65939;50.060;14.288;2023-09-07T04:26:49;97973.31;;;14.68;92.42
77003;BME280;65939;50.060;14.288;2023-09-07T04:28:52;97968.22;;;14.67;92.09
77003;BME280;65939;50.060;14.288;2023-09-07T04:30:53;97970.03;;;14.66;92.50
77003;BME280;65939;50.060;14.288;2023-09-07T04:32:54;97968.53;;;14.64;91.91
77003;BME280;65939;50.060;14.288;2023-09-07T04:34:55;97973.13;;;14.61;92.42
77003;BME280;65939;50.060;14.288;2023-09-07T04:36:56;97974.94;;;14.61;92.53
77003;BME280;65939;50.060;14.288;2023-09-07T04:38:57;97978.72;;;14.58;92.34
77003;BME280;65939;50.060;14.288;2023-09-07T04:41:08;97971.19;;;14.55;92.34
77003;BME280;65939;50.060;14.288;2023-09-07T04:43:09;97971.50;;;14.52;91.63
77003;BME280;65939;50.060;14.288;2023-09-07T04:45:10;97970.97;;;14.49;91.40
77003;BME280;65939;50.060;14.288;2023-09-07T04:47:11;97976.38;;;14.47;91.29
77003;BME280;65939;50.060;14.288;2023-09-07T04:49:11;97970.31;;;14.47;91.22
77003;BME280;65939;50.060;14.288;2023-09-07T04:51:12;97974.75;;;14.46;91.56
77003;BME280;65939;50.060;14.288;2023-09-07T04:53:13;97972.13;;;14.46;92.18
77003;BME280;65939;50.060;14.288;2023-09-07T04:55:13;97968.50;;;14.47;91.55
77003;BME280;65939;50.060;14.288;2023-09-07T04:57:17;97974.44;;;14.49;91.37
77003;BME280;65939;50.060;14.288;2023-09-07T04:59:18;97971.66;;;14.51;91.75
77003;BME280;65939;50.060;14.288;2023-09-07T05:01:19;97967.88;;;14.53;91.53
77003;BME280;65939;50.060;14.288;2023-09-07T05:03:20;97971.81;;;14.57;92.04
77003;BME280;65939;50.060;14.288;2023-09-07T05:05:20;97970.50;;;14.61;92.41
77003;BME280;65939;50.060;14.288;2023-09-07T05:07:21;97964.09;;;14.64;92.71
77003;BME280;65939;50.060;14.288;2023-09-07T05:09:22;97969.03;;;14.67;92.75
77003;BME280;65939;50.060;14.288;2023-09-07T05:11:24;97963.47;;;14.70;92.54
77003;BME280;65939;50.060;14.288;2023-09-07T05:13:24;97968.22;;;14.75;92.24
77003;BME280;65939;50.060;14.288;2023-09-07T05:15:26;97972.00;;;14.80;92.28
77003;BME280;65939;50.060;14.288;2023-09-07T05:17:26;97977.56;;;14.85;92.50
77003;BME280;65939;50.060;14.288;2023-09-07T05:19:27;97983.31;;;14.89;93.30
77003;BME280;65939;50.060;14.288;2023-09-07T05:21:28;97988.44;;;14.91;92.73
77003;BME280;65939;50.060;14.288;2023-09-07T05:23:28;97983.81;;;14.93;92.93
77003;BME280;65939;50.060;14.288;2023-09-07T05:25:29;97986.28;;;14.94;93.45
77003;BME280;65939;50.060;14.288;2023-09-07T05:27:30;97988.75;;;14.96;92.77
77003;BME280;65939;50.060;14.288;2023-09-07T05:29:31;97985.94;;;14.97;92.44
77003;BME280;65939;50.060;14.288;2023-09-07T05:31:31;97981.16;;;15.01;92.15
77003;BME280;65939;50.060;14.288;2023-09-07T05:33:32;97987.75;;;15.05;92.34
77003;BME280;65939;50.060;14.288;2023-09-07T05:35:32;97981.16;;;15.09;91.48
77003;BME280;65939;50.060;14.288;2023-09-07T05:37:33;97984.28;;;15.13;91.60
77003;BME280;65939;50.060;14.288;2023-09-07T05:39:34;97984.59;;;15.18;91.73
77003;BME280;65939;50.060;14.288;2023-09-07T05:41:35;97986.06;;;15.20;91.99
77003;BME280;65939;50.060;14.288;2023-09-07T05:43:37;97986.72;;;15.22;91.83
77003;BME280;65939;50.060;14.288;2023-09-07T05:45:39;97994.28;;;15.25;92.24
77003;BME280;65939;50.060;14.288;2023-09-07T05:47:40;97992.78;;;15.31;91.79
77003;BME280;65939;50.060;14.288;2023-09-07T05:49:41;97993.91;;;15.37;91.98
77003;BME280;65939;50.060;14.288;2023-09-07T05:51:50;97993.44;;;15.41;91.73
77003;BME280;65939;50.060;14.288;2023-09-07T05:53:51;97997.19;;;15.47;92.10
77003;BME280;65939;50.060;14.288;2023-09-07T05:55:52;97995.84;;;15.51;92.63
77003;BME280;65939;50.060;14.288;2023-09-07T05:57:54;98002.06;;;15.58;92.40
77003;BME280;65939;50.060;14.288;2023-09-07T05:59:55;98001.59;;;15.63;91.69
77003;BME280;65939;50.060;14.288;2023-09-07T06:01:55;97994.84;;;15.68;91.74
77003;BME280;65939;50.060;14.288;2023-09-07T06:03:56;98000.25;;;15.75;92.41
77003;BME280;65939;50.060;14.288;2023-09-07T06:05:57;97997.59;;;15.83;93.09
77003;BME280;65939;50.060;14.288;2023-09-07T06:07:57;98001.00;;;15.92;91.82
77003;BME280;65939;50.060;14.288;2023-09-07T06:09:58;97999.31;;;15.99;92.28
77003;BME280;65939;50.060;14.288;2023-09-07T06:11:59;97995.66;;;16.08;92.06
77003;BME280;65939;50.060;14.288;2023-09-07T06:14:00;98000.06;;;16.16;91.98
77003;BME280;65939;50.060;14.288;2023-09-07T06:16:01;97996.56;;;16.23;91.84
77003;BME280;65939;50.060;14.288;2023-09-07T06:18:03;98001.75;;;16.32;91.75
77003;BME280;65939;50.060;14.288;2023-09-07T06:20:04;98001.69;;;16.40;90.86
77003;BME280;65939;50.060;14.288;2023-09-07T06:22:06;98003.50;;;16.47;91.28
77003;BME280;65939;50.060;14.288;2023-09-07T06:24:08;98006.69;;;16.58;91.42
77003;BME280;65939;50.060;14.288;2023-09-07T06:26:09;98005.66;;;16.67;91.12
77003;BME280;65939;50.060;14.288;2023-09-07T06:28:10;98004.78;;;16.74;91.21
77003;BME280;65939;50.060;14.288;2023-09-07T06:30:11;97998.47;;;16.84;90.17
77003;BME280;65939;50.060;14.288;2023-09-07T06:32:11;97999.03;;;16.94;90.79
77003;BME280;65939;50.060;14.288;2023-09-07T06:34:12;97997.78;;;17.05;90.76
77003;BME280;65939;50.060;14.288;2023-09-07T06:36:13;97998.16;;;17.16;90.26
77003;BME280;65939;50.060;14.288;2023-09-07T06:38:13;98001.38;;;17.27;89.17
77003;BME280;65939;50.060;14.288;2023-09-07T06:40:14;98008.63;;;17.39;88.72
77003;BME280;65939;50.060;14.288;2023-09-07T06:42:16;98007.56;;;17.48;87.05
77003;BME280;65939;50.060;14.288;2023-09-07T06:44:16;98010.09;;;17.57;87.08
77003;BME280;65939;50.060;14.288;2023-09-07T06:46:17;98003.53;;;17.67;85.55
77003;BME280;65939;50.060;14.288;2023-09-07T06:48:18;98010.22;;;17.78;85.09
77003;BME280;65939;50.060;14.288;2023-09-07T06:50:19;98009.94;;;17.88;85.30
77003;BME280;65939;50.060;14.288;2023-09-07T06:52:20;98008.84;;;17.97;84.46
77003;BME280;65939;50.060;14.288;2023-09-07T06:54:21;98002.44;;;18.06;84.11
77003;BME280;65939;50.060;14.288;2023-09-07T06:56:21;98007.44;;;18.16;84.03
77003;BME280;65939;50.060;14.288;2023-09-07T06:58:22;98013.25;;;18.26;83.54
77003;BME280;65939;50.060;14.288;2023-09-07T07:00:23;98021.88;;;18.35;83.02
77003;BME280;65939;50.060;14.288;2023-09-07T07:02:23;98016.47;;;18.43;82.90
77003;BME280;65939;50.060;14.288;2023-09-07T07:04:24;98016.97;;;18.53;82.72
77003;BME280;65939;50.060;14.288;2023-09-07T07:06:25;98014.22;;;18.61;81.92
77003;BME280;65939;50.060;14.288;2023-09-07T07:08:26;98022.03;;;18.70;81.41
77003;BME280;65939;50.060;14.288;2023-09-07T07:10:26;98021.91;;;18.78;80.95
77003;BME280;65939;50.060;14.288;2023-09-07T07:12:27;98021.97;;;18.84;80.38
77003;BME280;65939;50.060;14.288;2023-09-07T07:14:28;98021.03;;;18.92;79.73
77003;BME280;65939;50.060;14.288;2023-09-07T07:16:29;98024.38;;;19.01;79.78
77003;BME280;65939;50.060;14.288;2023-09-07T07:18:29;98029.53;;;19.09;79.13
77003;BME280;65939;50.060;14.288;2023-09-07T07:20:30;98026.72;;;19.17;79.26
77003;BME280;65939;50.060;14.288;2023-09-07T07:22:31;98027.41;;;19.26;78.37
77003;BME280;65939;50.060;14.288;2023-09-07T07:24:35;98027.25;;;19.34;78.98
77003;BME280;65939;50.060;14.288;2023-09-07T07:26:36;98028.75;;;19.43;78.28
77003;BME280;65939;50.060;14.288;2023-09-07T07:28:36;98028.41;;;19.53;77.87
77003;BME280;65939;50.060;14.288;2023-09-07T07:30:39;98026.41;;;19.61;77.35
77003;BME280;65939;50.060;14.288;2023-09-07T07:32:43;98023.03;;;19.68;77.55
77003;BME280;65939;50.060;14.288;2023-09-07T07:34:43;98026.31;;;19.76;76.51
77003;BME280;65939;50.060;14.288;2023-09-07T07:36:44;98031.66;;;19.83;77.38
77003;BME280;65939;50.060;14.288;2023-09-07T07:38:45;98029.22;;;19.88;76.16
77003;BME280;65939;50.060;14.288;2023-09-07T07:40:45;98028.44;;;19.94;75.39
77003;BME280;65939;50.060;14.288;2023-09-07T07:42:47;98029.31;;;20.01;75.14
77003;BME280;65939;50.060;14.288;2023-09-07T07:44:48;98030.16;;;20.08;75.44
77003;BME280;65939;50.060;14.288;2023-09-07T07:46:49;98036.09;;;20.17;74.50
77003;BME280;65939;50.060;14.288;2023-09-07T07:48:50;98030.81;;;20.24;74.93
77003;BME280;65939;50.060;14.288;2023-09-07T07:50:50;98034.28;;;20.31;74.89
77003;BME280;65939;50.060;14.288;2023-09-07T07:52:51;98030.66;;;20.39;74.40
77003;BME280;65939;50.060;14.288;2023-09-07T07:54:53;98031.50;;;20.46;74.23
77003;BME280;65939;50.060;14.288;2023-09-07T07:56:54;98038.50;;;20.53;74.03
77003;BME280;65939;50.060;14.288;2023-09-07T07:58:54;98034.00;;;20.61;73.35
77003;BME280;65939;50.060;14.288;2023-09-07T08:00:55;98029.53;;;20.68;73.75
77003;BME280;65939;50.060;14.288;2023-09-07T08:02:58;98034.00;;;20.74;72.96
77003;BME280;65939;50.060;14.288;2023-09-07T08:04:58;98037.31;;;20.83;72.92
77003;BME280;65939;50.060;14.288;2023-09-07T08:06:59;98032.59;;;20.91;72.88
77003;BME280;65939;50.060;14.288;2023-09-07T08:09:04;98036.09;;;20.98;72.26
77003;BME280;65939;50.060;14.288;2023-09-07T08:11:04;98033.44;;;21.05;72.34
77003;BME280;65939;50.060;14.288;2023-09-07T08:13:06;98037.13;;;21.11;72.75
77003;BME280;65939;50.060;14.288;2023-09-07T08:15:07;98035.28;;;21.18;72.24
77003;BME280;65939;50.060;14.288;2023-09-07T08:17:07;98036.09;;;21.25;72.03
77003;BME280;65939;50.060;14.288;2023-09-07T08:19:08;98029.56;;;21.34;71.29
77003;BME280;65939;50.060;14.288;2023-09-07T08:21:11;98022.41;;;21.41;71.50
77003;BME280;65939;50.060;14.288;2023-09-07T08:23:12;98022.78;;;21.51;72.30
77003;BME280;65939;50.060;14.288;2023-09-07T08:25:14;98025.84;;;21.62;71.13
77003;BME280;65939;50.060;14.288;2023-09-07T08:27:14;98020.13;;;21.65;70.60
77003;BME280;65939;50.060;14.288;2023-09-07T08:29:19;98021.31;;;21.69;71.05
77003;BME280;65939;50.060;14.288;2023-09-07T08:31:20;98014.56;;;21.73;70.48
77003;BME280;65939;50.060;14.288;2023-09-07T08:33:22;98020.09;;;21.78;71.56
77003;BME280;65939;50.060;14.288;2023-09-07T08:35:29;98026.19;;;21.85;70.64
77003;BME280;65939;50.060;14.288;2023-09-07T08:37:30;98025.97;;;21.93;70.95
77003;BME280;65939;50.060;14.288;2023-09-07T08:39:31;98021.25;;;22.02;70.25
77003;BME280;65939;50.060;14.288;2023-09-07T08:41:38;98016.06;;;22.14;70.42
77003;BME280;65939;50.060;14.288;2023-09-07T08:43:45;98017.28;;;22.25;69.97
77003;BME280;65939;50.060;14.288;2023-09-07T08:45:51;98019.25;;;22.36;69.52
77003;BME280;65939;50.060;14.288;2023-09-07T08:47:59;98022.28;;;22.46;69.32
77003;BME280;65939;50.060;14.288;2023-09-07T08:50:01;98020.97;;;22.55;69.79
77003;BME280;65939;50.060;14.288;2023-09-07T08:52:05;98025.41;;;22.68;69.19
77003;BME280;65939;50.060;14.288;2023-09-07T08:54:07;98025.75;;;22.78;69.31
77003;BME280;65939;50.060;14.288;2023-09-07T08:56:11;98022.44;;;22.83;68.43
77003;BME280;65939;50.060;14.288;2023-09-07T08:58:12;98027.94;;;22.88;68.87
77003;BME280;65939;50.060;14.288;2023-09-07T09:00:13;98013.59;;;22.96;69.61
77003;BME280;65939;50.060;14.288;2023-09-07T09:02:16;98015.59;;;23.00;69.14
77003;BME280;65939;50.060;14.288;2023-09-07T09:04:18;98014.34;;;23.03;68.47
77003;BME280;65939;50.060;14.288;2023-09-07T09:06:21;98016.34;;;23.07;68.63
77003;BME280;65939;50.060;14.288;2023-09-07T09:08:24;98010.72;;;23.15;69.12
77003;BME280;65939;50.060;14.288;2023-09-07T09:10:25;98012.91;;;23.25;68.84
77003;BME280;65939;50.060;14.288;2023-09-07T09:12:26;98013.22;;;23.35;68.58
77003;BME280;65939;50.060;14.288;2023-09-07T09:14:30;98010.88;;;23.46;68.15
77003;BME280;65939;50.060;14.288;2023-09-07T09:16:31;98012.19;;;23.55;67.25
77003;BME280;65939;50.060;14.288;2023-09-07T09:18:31;98017.72;;;23.60;68.27
77003;BME280;65939;50.060;14.288;2023-09-07T09:20:32;98018.66;;;23.65;68.49
77003;BME280;65939;50.060;14.288;2023-09-07T09:22:33;98019.22;;;23.74;68.53
77003;BME280;65939;50.060;14.288;2023-09-07T09:24:34;98014.84;;;23.80;67.62
77003;BME280;65939;50.060;14.288;2023-09-07T09:26:37;98015.81;;;23.85;66.88
77003;BME280;65939;50.060;14.288;2023-09-07T09:28:37;98021.88;;;23.93;66.70
77003;BME280;65939;50.060;14.288;2023-09-07T09:30:38;98017.03;;;24.01;66.45
77003;BME280;65939;50.060;14.288;2023-09-07T09:32:39;98020.09;;;24.05;66.03
77003;BME280;65939;50.060;14.288;2023-09-07T09:34:40;98019.28;;;24.04;66.09
77003;BME280;65939;50.060;14.288;2023-09-07T09:36:43;98017.22;;;24.06;66.50
77003;BME280;65939;50.060;14.288;2023-09-07T09:38:48;98016.09;;;24.14;66.91
77003;BME280;65939;50.060;14.288;2023-09-07T09:40:50;98013.69;;;24.24;66.75
77003;BME280;65939;50.060;14.288;2023-09-07T09:42:52;98005.16;;;24.34;65.59
77003;BME280;65939;50.060;14.288;2023-09-07T09:44:56;98009.16;;;24.43;64.96
77003;BME280;65939;50.060;14.288;2023-09-07T09:46:58;98008.84;;;24.51;64.56
77003;BME280;65939;50.060;14.288;2023-09-07T09:49:00;98000.97;;;24.56;64.82
77003;BME280;65939;50.060;14.288;2023-09-07T09:51:03;97999.25;;;24.62;64.50
77003;BME280;65939;50.060;14.288;2023-09-07T09:53:07;97994.63;;;24.69;63.79
77003;BME280;65939;50.060;14.288;2023-09-07T09:55:08;97995.09;;;24.78;64.11
77003;BME280;65939;50.060;14.288;2023-09-07T09:57:13;97992.31;;;24.84;64.16
77003;BME280;65939;50.060;14.288;2023-09-07T09:59:14;97994.53;;;24.88;63.33
77003;BME280;65939;50.060;14.288;2023-09-07T10:01:17;97994.63;;;24.93;62.62
77003;BME280;65939;50.060;14.288;2023-09-07T10:05:25;97986.63;;;25.04;62.89
77003;BME280;65939;50.060;14.288;2023-09-07T10:07:42;97992.25;;;25.15;62.85
77003;BME280;65939;50.060;14.288;2023-09-07T10:09:43;97987.59;;;25.22;63.44
77003;BME280;65939;50.060;14.288;2023-09-07T10:11:51;97988.78;;;25.26;62.17
77003;BME280;65939;50.060;14.288;2023-09-07T10:13:57;97987.84;;;25.32;62.56
77003;BME280;65939;50.060;14.288;2023-09-07T10:16:08;97985.50;;;25.36;61.52
77003;BME280;65939;50.060;14.288;2023-09-07T10:18:14;97986.91;;;25.38;62.27
77003;BME280;65939;50.060;14.288;2023-09-07T10:20:19;97984.13;;;25.45;62.29
77003;BME280;65939;50.060;14.288;2023-09-07T10:22:23;97978.31;;;25.48;62.27
77003;BME280;65939;50.060;14.288;2023-09-07T10:26:26;97983.28;;;25.56;62.44
77003;BME280;65939;50.060;14.288;2023-09-07T10:28:26;97983.38;;;25.61;61.45
77003;BME280;65939;50.060;14.288;2023-09-07T10:30:28;97987.59;;;25.69;60.45
77003;BME280;65939;50.060;14.288;2023-09-07T10:32:38;97986.19;;;25.66;60.72
77003;BME280;65939;50.060;14.288;2023-09-07T10:34:41;97981.53;;;25.62;60.43
77003;BME280;65939;50.060;14.288;2023-09-07T10:36:45;97979.09;;;25.60;60.57
77003;BME280;65939;50.060;14.288;2023-09-07T10:38:46;97976.41;;;25.60;59.28
77003;BME280;65939;50.060;14.288;2023-09-07T10:40:47;97978.63;;;25.63;60.21